SCTE 201700Z 34009KT 9999 FEW022 BKN030 18/12 Q1014 NOSIG